Savannah Hilton Head International Airport
KSAV : now visible

Airfield :











YOU CAN JOIN US ON...

 
LOGIN :

Register | Disclaimer

   EN    FR    IT 

 









Legend :    VFR   Marginal VFR   IFR   Intensive IFR   Very Intensive IFR
Visi :
Ceiling :
>= 8 km
>= 3000ft
5 to 8 km
1000 to 3000 ft
1500m to 5 km
500 to 1000 ft
800 to 1500m
200 to 500 ft
< 800m
< 200 ft
Symbols :   Thunderstorms  Fog  Heavy snow  Heavy precipitations  Wind > 20 kt






- Airport Elevation : 50 ft
- IATA code : SAV


KSAV - Savannah Hilton Head International

CURRENT METAR :
  • 280953Z AUTO 25007KT 10SM CLR 12/08 A2994 RMK AO2 SLP139 T01220078

EXPIRED METARs :
  • 280853Z AUTO 23005KT 10SM CLR 12/07 A2994 RMK AO2 SLP136 T01170072 53009
  • 280753Z AUTO 22004KT 10SM CLR 13/07 A2992 RMK AO2 SLP132 T01280072

TAF KSAV
Valid from the 28 at 06:00 until the 29 at 06:00 UTC


280520Z 2806/2906 25007KT P6SM SKC
FM281600 27011G17KT P6SM SKC
FM282200 29003KT P6SM SKC
KZJX FIR / North America



MET'MAP, your aeronautical weather chart ! - Copyright ORBIFLY December 2007 - Disclaimer

ORBIFLY MET'MAP TEAM :

Programming & Development : Alexandra Zaïnal
Original concept : Baudouin d'Aumeries
Technical & hardware support : Manuel Goepfert
Assistance : Marc-Olivier Méhu




SOURCES & CREDITS :

   NOAA       Earth
Advisory